sensor_id;sensor_type;location;lat;lon;timestamp;P1;durP1;ratioP1;P2;durP2;ratioP2
59649;SDS011;46162;57.568;25.814;2023-07-29T00:00:25;3.58;;;0.70;;
59649;SDS011;46162;57.568;25.814;2023-07-29T00:02:54;5.28;;;0.75;;
59649;SDS011;46162;57.568;25.814;2023-07-29T00:05:23;2.60;;;0.85;;
59649;SDS011;46162;57.568;25.814;2023-07-29T00:07:52;4.68;;;1.13;;
59649;SDS011;46162;57.568;25.814;2023-07-29T00:10:20;3.85;;;1.38;;
59649;SDS011;46162;57.568;25.814;2023-07-29T00:12:49;4.15;;;1.67;;
59649;SDS011;46162;57.568;25.814;2023-07-29T00:15:18;6.25;;;1.58;;
59649;SDS011;46162;57.568;25.814;2023-07-29T00:17:48;5.03;;;1.67;;
59649;SDS011;46162;57.568;25.814;2023-07-29T00:20:16;5.43;;;2.08;;
59649;SDS011;46162;57.568;25.814;2023-07-29T00:22:45;5.57;;;1.90;;
59649;SDS011;46162;57.568;25.814;2023-07-29T00:27:44;5.88;;;2.45;;
59649;SDS011;46162;57.568;25.814;2023-07-29T00:30:13;6.25;;;2.75;;
59649;SDS011;46162;57.568;25.814;2023-07-29T00:32:42;7.53;;;2.60;;
59649;SDS011;46162;57.568;25.814;2023-07-29T00:35:13;7.15;;;3.20;;
59649;SDS011;46162;57.568;25.814;2023-07-29T00:37:42;5.75;;;3.20;;
59649;SDS011;46162;57.568;25.814;2023-07-29T00:40:13;7.57;;;3.22;;
59649;SDS011;46162;57.568;25.814;2023-07-29T00:42:47;7.28;;;3.50;;
59649;SDS011;46162;57.568;25.814;2023-07-29T00:45:17;5.23;;;3.20;;
59649;SDS011;46162;57.568;25.814;2023-07-29T00:47:46;5.07;;;2.85;;
59649;SDS011;46162;57.568;25.814;2023-07-29T00:50:17;6.97;;;3.47;;
59649;SDS011;46162;57.568;25.814;2023-07-29T00:52:46;5.75;;;2.83;;
59649;SDS011;46162;57.568;25.814;2023-07-29T00:55:15;8.38;;;3.17;;
59649;SDS011;46162;57.568;25.814;2023-07-29T00:57:44;5.85;;;3.03;;
59649;SDS011;46162;57.568;25.814;2023-07-29T01:00:15;5.97;;;3.03;;
59649;SDS011;46162;57.568;25.814;2023-07-29T01:02:43;6.15;;;3.10;;
59649;SDS011;46162;57.568;25.814;2023-07-29T01:05:13;6.47;;;3.10;;
59649;SDS011;46162;57.568;25.814;2023-07-29T01:10:19;5.93;;;2.80;;
59649;SDS011;46162;57.568;25.814;2023-07-29T01:12:56;5.45;;;3.20;;
59649;SDS011;46162;57.568;25.814;2023-07-29T01:15:33;5.32;;;2.95;;
59649;SDS011;46162;57.568;25.814;2023-07-29T01:18:10;4.75;;;2.80;;
59649;SDS011;46162;57.568;25.814;2023-07-29T01:20:43;8.70;;;3.03;;
59649;SDS011;46162;57.568;25.814;2023-07-29T01:25:57;5.85;;;2.85;;
59649;SDS011;46162;57.568;25.814;2023-07-29T01:28:26;6.97;;;3.40;;
59649;SDS011;46162;57.568;25.814;2023-07-29T01:30:57;4.72;;;2.78;;
59649;SDS011;46162;57.568;25.814;2023-07-29T01:33:30;6.38;;;2.97;;
59649;SDS011;46162;57.568;25.814;2023-07-29T01:36:10;6.80;;;3.05;;
59649;SDS011;46162;57.568;25.814;2023-07-29T01:38:43;6.40;;;3.08;;
59649;SDS011;46162;57.568;25.814;2023-07-29T01:41:13;6.35;;;3.38;;
59649;SDS011;46162;57.568;25.814;2023-07-29T01:43:42;7.40;;;2.88;;
59649;SDS011;46162;57.568;25.814;2023-07-29T01:46:11;4.13;;;2.92;;
59649;SDS011;46162;57.568;25.814;2023-07-29T01:48:40;6.13;;;3.38;;
59649;SDS011;46162;57.568;25.814;2023-07-29T01:51:12;6.15;;;3.85;;
59649;SDS011;46162;57.568;25.814;2023-07-29T01:53:43;6.43;;;3.15;;
59649;SDS011;46162;57.568;25.814;2023-07-29T01:56:12;5.13;;;2.73;;
59649;SDS011;46162;57.568;25.814;2023-07-29T01:58:49;6.18;;;3.10;;
59649;SDS011;46162;57.568;25.814;2023-07-29T02:01:18;11.35;;;3.60;;
59649;SDS011;46162;57.568;25.814;2023-07-29T02:03:46;8.57;;;3.65;;
59649;SDS011;46162;57.568;25.814;2023-07-29T02:06:20;6.15;;;3.40;;
59649;SDS011;46162;57.568;25.814;2023-07-29T02:08:50;5.57;;;3.20;;
59649;SDS011;46162;57.568;25.814;2023-07-29T02:11:19;5.32;;;3.65;;
59649;SDS011;46162;57.568;25.814;2023-07-29T02:13:55;7.15;;;3.80;;
59649;SDS011;46162;57.568;25.814;2023-07-29T02:16:24;6.47;;;3.78;;
59649;SDS011;46162;57.568;25.814;2023-07-29T02:18:52;6.60;;;3.58;;
59649;SDS011;46162;57.568;25.814;2023-07-29T02:21:22;7.03;;;4.27;;
59649;SDS011;46162;57.568;25.814;2023-07-29T02:23:52;7.07;;;3.45;;
59649;SDS011;46162;57.568;25.814;2023-07-29T02:26:21;6.80;;;3.15;;
59649;SDS011;46162;57.568;25.814;2023-07-29T02:28:50;5.60;;;3.60;;
59649;SDS011;46162;57.568;25.814;2023-07-29T02:31:20;7.05;;;3.63;;
59649;SDS011;46162;57.568;25.814;2023-07-29T02:33:49;6.22;;;3.90;;
59649;SDS011;46162;57.568;25.814;2023-07-29T02:36:18;7.43;;;3.30;;
59649;SDS011;46162;57.568;25.814;2023-07-29T02:38:47;6.28;;;3.15;;
59649;SDS011;46162;57.568;25.814;2023-07-29T02:41:17;6.78;;;3.97;;
59649;SDS011;46162;57.568;25.814;2023-07-29T02:43:47;8.13;;;4.10;;
59649;SDS011;46162;57.568;25.814;2023-07-29T02:46:17;8.60;;;3.78;;
59649;SDS011;46162;57.568;25.814;2023-07-29T02:48:46;6.47;;;3.60;;
59649;SDS011;46162;57.568;25.814;2023-07-29T02:51:14;6.47;;;3.78;;
59649;SDS011;46162;57.568;25.814;2023-07-29T02:53:45;5.70;;;3.22;;
59649;SDS011;46162;57.568;25.814;2023-07-29T02:56:14;5.85;;;4.15;;
59649;SDS011;46162;57.568;25.814;2023-07-29T02:58:46;5.15;;;3.40;;
59649;SDS011;46162;57.568;25.814;2023-07-29T03:01:15;9.13;;;4.07;;
59649;SDS011;46162;57.568;25.814;2023-07-29T03:03:43;7.55;;;4.40;;
59649;SDS011;46162;57.568;25.814;2023-07-29T03:06:14;7.72;;;3.90;;
59649;SDS011;46162;57.568;25.814;2023-07-29T03:08:43;7.40;;;4.40;;
59649;SDS011;46162;57.568;25.814;2023-07-29T03:11:12;7.47;;;4.22;;
59649;SDS011;46162;57.568;25.814;2023-07-29T03:13:42;10.73;;;4.30;;
59649;SDS011;46162;57.568;25.814;2023-07-29T03:16:16;7.40;;;4.60;;
59649;SDS011;46162;57.568;25.814;2023-07-29T03:18:53;8.25;;;4.80;;
59649;SDS011;46162;57.568;25.814;2023-07-29T03:21:22;8.57;;;5.13;;
59649;SDS011;46162;57.568;25.814;2023-07-29T03:23:51;8.32;;;4.85;;
59649;SDS011;46162;57.568;25.814;2023-07-29T03:26:20;6.72;;;4.53;;
59649;SDS011;46162;57.568;25.814;2023-07-29T03:28:52;6.95;;;4.53;;
59649;SDS011;46162;57.568;25.814;2023-07-29T03:31:27;7.30;;;4.82;;
59649;SDS011;46162;57.568;25.814;2023-07-29T03:33:58;8.27;;;4.32;;
59649;SDS011;46162;57.568;25.814;2023-07-29T03:36:28;9.90;;;5.43;;
59649;SDS011;46162;57.568;25.814;2023-07-29T03:38:58;8.93;;;5.45;;
59649;SDS011;46162;57.568;25.814;2023-07-29T03:41:31;9.05;;;4.53;;
59649;SDS011;46162;57.568;25.814;2023-07-29T03:43:59;10.00;;;4.30;;
59649;SDS011;46162;57.568;25.814;2023-07-29T03:46:29;6.75;;;4.60;;
59649;SDS011;46162;57.568;25.814;2023-07-29T03:49:05;9.25;;;4.38;;
59649;SDS011;46162;57.568;25.814;2023-07-29T03:51:34;10.20;;;4.57;;
59649;SDS011;46162;57.568;25.814;2023-07-29T03:54:02;7.95;;;4.45;;
59649;SDS011;46162;57.568;25.814;2023-07-29T03:56:31;6.45;;;4.55;;
59649;SDS011;46162;57.568;25.814;2023-07-29T03:59:03;8.45;;;5.18;;
59649;SDS011;46162;57.568;25.814;2023-07-29T04:01:36;7.07;;;4.40;;
59649;SDS011;46162;57.568;25.814;2023-07-29T04:04:12;9.10;;;4.97;;
59649;SDS011;46162;57.568;25.814;2023-07-29T04:09:12;8.23;;;4.72;;
59649;SDS011;46162;57.568;25.814;2023-07-29T04:11:43;12.77;;;5.47;;
59649;SDS011;46162;57.568;25.814;2023-07-29T04:14:16;6.40;;;4.68;;
59649;SDS011;46162;57.568;25.814;2023-07-29T04:16:49;7.35;;;4.63;;
59649;SDS011;46162;57.568;25.814;2023-07-29T04:19:17;7.75;;;4.90;;
59649;SDS011;46162;57.568;25.814;2023-07-29T04:21:46;10.57;;;6.25;;
59649;SDS011;46162;57.568;25.814;2023-07-29T04:24:17;11.52;;;6.63;;
59649;SDS011;46162;57.568;25.814;2023-07-29T04:26:47;8.50;;;6.25;;
59649;SDS011;46162;57.568;25.814;2023-07-29T04:29:16;9.05;;;6.03;;
59649;SDS011;46162;57.568;25.814;2023-07-29T04:31:45;10.20;;;6.25;;
59649;SDS011;46162;57.568;25.814;2023-07-29T04:34:15;8.60;;;5.85;;
59649;SDS011;46162;57.568;25.814;2023-07-29T04:36:44;11.40;;;6.07;;
59649;SDS011;46162;57.568;25.814;2023-07-29T04:39:14;8.02;;;5.25;;
59649;SDS011;46162;57.568;25.814;2023-07-29T04:41:45;11.10;;;7.18;;
59649;SDS011;46162;57.568;25.814;2023-07-29T04:44:23;12.60;;;6.47;;
59649;SDS011;46162;57.568;25.814;2023-07-29T04:46:54;11.18;;;6.88;;
59649;SDS011;46162;57.568;25.814;2023-07-29T04:49:26;9.88;;;6.35;;
59649;SDS011;46162;57.568;25.814;2023-07-29T04:51:57;10.38;;;6.60;;
59649;SDS011;46162;57.568;25.814;2023-07-29T04:54:29;11.97;;;7.17;;
59649;SDS011;46162;57.568;25.814;2023-07-29T04:56:58;12.30;;;6.70;;
59649;SDS011;46162;57.568;25.814;2023-07-29T04:59:27;9.07;;;5.93;;
59649;SDS011;46162;57.568;25.814;2023-07-29T05:01:57;9.05;;;6.50;;
59649;SDS011;46162;57.568;25.814;2023-07-29T05:04:27;13.02;;;6.88;;
59649;SDS011;46162;57.568;25.814;2023-07-29T05:06:56;10.55;;;6.60;;
59649;SDS011;46162;57.568;25.814;2023-07-29T05:09:25;12.57;;;7.65;;
59649;SDS011;46162;57.568;25.814;2023-07-29T05:11:54;10.52;;;7.10;;
59649;SDS011;46162;57.568;25.814;2023-07-29T05:14:23;11.02;;;6.80;;
59649;SDS011;46162;57.568;25.814;2023-07-29T05:16:52;12.57;;;7.43;;
59649;SDS011;46162;57.568;25.814;2023-07-29T05:19:21;11.93;;;6.53;;
59649;SDS011;46162;57.568;25.814;2023-07-29T05:21:57;9.60;;;6.18;;
59649;SDS011;46162;57.568;25.814;2023-07-29T05:24:26;11.65;;;5.70;;
59649;SDS011;46162;57.568;25.814;2023-07-29T05:26:57;9.43;;;6.15;;
59649;SDS011;46162;57.568;25.814;2023-07-29T05:29:26;11.30;;;6.05;;
59649;SDS011;46162;57.568;25.814;2023-07-29T05:31:56;12.60;;;6.72;;
59649;SDS011;46162;57.568;25.814;2023-07-29T05:34:27;13.48;;;6.45;;
59649;SDS011;46162;57.568;25.814;2023-07-29T05:36:59;12.05;;;6.82;;
59649;SDS011;46162;57.568;25.814;2023-07-29T05:39:30;9.98;;;7.50;;
59649;SDS011;46162;57.568;25.814;2023-07-29T05:42:03;9.13;;;7.18;;
59649;SDS011;46162;57.568;25.814;2023-07-29T05:44:32;10.02;;;7.25;;
59649;SDS011;46162;57.568;25.814;2023-07-29T05:47:02;11.75;;;7.88;;
59649;SDS011;46162;57.568;25.814;2023-07-29T05:49:31;12.48;;;7.90;;
59649;SDS011;46162;57.568;25.814;2023-07-29T05:52:02;10.02;;;7.25;;
59649;SDS011;46162;57.568;25.814;2023-07-29T05:54:30;12.30;;;7.55;;
59649;SDS011;46162;57.568;25.814;2023-07-29T05:57:00;12.07;;;6.90;;
59649;SDS011;46162;57.568;25.814;2023-07-29T05:59:30;11.50;;;8.15;;
59649;SDS011;46162;57.568;25.814;2023-07-29T06:01:58;12.45;;;8.15;;
59649;SDS011;46162;57.568;25.814;2023-07-29T06:04:28;10.00;;;7.90;;
59649;SDS011;46162;57.568;25.814;2023-07-29T06:06:56;12.23;;;8.27;;
59649;SDS011;46162;57.568;25.814;2023-07-29T06:09:27;11.98;;;8.05;;
59649;SDS011;46162;57.568;25.814;2023-07-29T06:11:56;13.65;;;8.73;;
59649;SDS011;46162;57.568;25.814;2023-07-29T06:14:24;12.65;;;8.35;;
59649;SDS011;46162;57.568;25.814;2023-07-29T06:16:53;13.82;;;8.23;;
59649;SDS011;46162;57.568;25.814;2023-07-29T06:19:22;9.80;;;7.05;;
59649;SDS011;46162;57.568;25.814;2023-07-29T06:21:54;9.88;;;7.13;;
59649;SDS011;46162;57.568;25.814;2023-07-29T06:24:24;12.13;;;7.32;;
59649;SDS011;46162;57.568;25.814;2023-07-29T06:26:54;12.27;;;7.57;;
59649;SDS011;46162;57.568;25.814;2023-07-29T06:29:24;12.55;;;6.80;;
59649;SDS011;46162;57.568;25.814;2023-07-29T06:31:53;14.93;;;6.93;;
59649;SDS011;46162;57.568;25.814;2023-07-29T06:34:22;11.48;;;6.53;;
59649;SDS011;46162;57.568;25.814;2023-07-29T06:36:52;8.75;;;6.40;;
59649;SDS011;46162;57.568;25.814;2023-07-29T06:39:21;10.57;;;6.95;;
59649;SDS011;46162;57.568;25.814;2023-07-29T06:41:50;12.05;;;7.07;;
59649;SDS011;46162;57.568;25.814;2023-07-29T06:44:21;11.25;;;6.65;;
59649;SDS011;46162;57.568;25.814;2023-07-29T06:46:53;14.57;;;6.88;;
59649;SDS011;46162;57.568;25.814;2023-07-29T06:49:23;9.83;;;6.40;;
59649;SDS011;46162;57.568;25.814;2023-07-29T06:51:53;13.80;;;6.57;;
59649;SDS011;46162;57.568;25.814;2023-07-29T06:54:24;9.17;;;6.17;;
59649;SDS011;46162;57.568;25.814;2023-07-29T06:56:53;9.90;;;5.90;;
59649;SDS011;46162;57.568;25.814;2023-07-29T06:59:23;10.88;;;6.32;;
59649;SDS011;46162;57.568;25.814;2023-07-29T07:01:52;8.23;;;5.30;;
59649;SDS011;46162;57.568;25.814;2023-07-29T07:04:21;9.32;;;5.00;;
59649;SDS011;46162;57.568;25.814;2023-07-29T07:06:50;8.18;;;4.45;;
59649;SDS011;46162;57.568;25.814;2023-07-29T07:09:19;7.70;;;4.05;;
59649;SDS011;46162;57.568;25.814;2023-07-29T07:11:48;8.20;;;4.20;;
59649;SDS011;46162;57.568;25.814;2023-07-29T07:14:17;11.80;;;5.07;;
59649;SDS011;46162;57.568;25.814;2023-07-29T07:16:47;9.10;;;5.40;;
59649;SDS011;46162;57.568;25.814;2023-07-29T07:19:16;9.63;;;5.05;;
59649;SDS011;46162;57.568;25.814;2023-07-29T07:21:45;11.60;;;5.47;;
59649;SDS011;46162;57.568;25.814;2023-07-29T07:24:13;9.25;;;4.60;;
59649;SDS011;46162;57.568;25.814;2023-07-29T07:26:42;8.50;;;4.32;;
59649;SDS011;46162;57.568;25.814;2023-07-29T07:29:11;8.38;;;3.70;;
59649;SDS011;46162;57.568;25.814;2023-07-29T07:31:39;9.45;;;3.83;;
59649;SDS011;46162;57.568;25.814;2023-07-29T07:34:10;10.23;;;3.60;;
59649;SDS011;46162;57.568;25.814;2023-07-29T07:36:38;6.13;;;3.50;;
59649;SDS011;46162;57.568;25.814;2023-07-29T07:39:10;7.97;;;3.33;;
59649;SDS011;46162;57.568;25.814;2023-07-29T07:41:39;7.10;;;3.03;;
59649;SDS011;46162;57.568;25.814;2023-07-29T07:44:09;5.43;;;2.88;;
59649;SDS011;46162;57.568;25.814;2023-07-29T07:46:42;6.35;;;2.38;;
59649;SDS011;46162;57.568;25.814;2023-07-29T07:49:12;4.88;;;1.80;;
59649;SDS011;46162;57.568;25.814;2023-07-29T07:51:40;6.68;;;1.67;;
59649;SDS011;46162;57.568;25.814;2023-07-29T07:54:11;4.57;;;2.15;;
59649;SDS011;46162;57.568;25.814;2023-07-29T07:56:40;4.90;;;1.15;;
59649;SDS011;46162;57.568;25.814;2023-07-29T07:59:08;3.15;;;1.35;;
59649;SDS011;46162;57.568;25.814;2023-07-29T08:01:37;4.25;;;1.63;;
59649;SDS011;46162;57.568;25.814;2023-07-29T08:04:07;6.53;;;2.60;;
59649;SDS011;46162;57.568;25.814;2023-07-29T08:06:37;6.38;;;1.88;;
59649;SDS011;46162;57.568;25.814;2023-07-29T08:09:06;5.07;;;1.92;;
59649;SDS011;46162;57.568;25.814;2023-07-29T08:11:34;6.22;;;2.00;;
59649;SDS011;46162;57.568;25.814;2023-07-29T08:14:03;4.22;;;2.35;;
59649;SDS011;46162;57.568;25.814;2023-07-29T08:16:32;5.10;;;2.00;;
59649;SDS011;46162;57.568;25.814;2023-07-29T08:19:02;5.75;;;1.33;;
59649;SDS011;46162;57.568;25.814;2023-07-29T08:21:30;4.10;;;1.67;;
59649;SDS011;46162;57.568;25.814;2023-07-29T08:24:01;3.88;;;1.02;;
59649;SDS011;46162;57.568;25.814;2023-07-29T08:26:30;3.50;;;1.27;;
59649;SDS011;46162;57.568;25.814;2023-07-29T08:28:59;4.63;;;1.60;;
59649;SDS011;46162;57.568;25.814;2023-07-29T08:31:28;6.88;;;1.73;;
59649;SDS011;46162;57.568;25.814;2023-07-29T08:33:57;6.60;;;1.80;;
59649;SDS011;46162;57.568;25.814;2023-07-29T08:36:26;5.65;;;1.90;;
59649;SDS011;46162;57.568;25.814;2023-07-29T08:38:55;11.80;;;3.08;;
59649;SDS011;46162;57.568;25.814;2023-07-29T08:41:27;9.38;;;2.33;;
59649;SDS011;46162;57.568;25.814;2023-07-29T08:44:02;22.30;;;4.97;;
59649;SDS011;46162;57.568;25.814;2023-07-29T08:46:39;7.82;;;1.80;;
59649;SDS011;46162;57.568;25.814;2023-07-29T08:49:08;12.98;;;3.35;;
59649;SDS011;46162;57.568;25.814;2023-07-29T08:51:41;10.80;;;2.67;;
59649;SDS011;46162;57.568;25.814;2023-07-29T08:54:11;10.35;;;2.47;;
59649;SDS011;46162;57.568;25.814;2023-07-29T08:56:41;19.33;;;4.40;;
59649;SDS011;46162;57.568;25.814;2023-07-29T09:01:39;7.35;;;1.85;;
59649;SDS011;46162;57.568;25.814;2023-07-29T09:04:08;10.75;;;2.40;;
59649;SDS011;46162;57.568;25.814;2023-07-29T09:06:36;5.93;;;1.83;;
59649;SDS011;46162;57.568;25.814;2023-07-29T09:09:07;4.03;;;1.45;;
59649;SDS011;46162;57.568;25.814;2023-07-29T09:11:36;3.65;;;1.10;;
59649;SDS011;46162;57.568;25.814;2023-07-29T09:14:07;3.20;;;0.70;;
59649;SDS011;46162;57.568;25.814;2023-07-29T09:16:37;3.42;;;0.85;;
59649;SDS011;46162;57.568;25.814;2023-07-29T09:19:06;3.15;;;0.90;;
59649;SDS011;46162;57.568;25.814;2023-07-29T09:21:38;7.07;;;0.88;;
59649;SDS011;46162;57.568;25.814;2023-07-29T09:24:07;2.85;;;0.75;;
59649;SDS011;46162;57.568;25.814;2023-07-29T09:26:37;3.72;;;0.70;;
59649;SDS011;46162;57.568;25.814;2023-07-29T09:29:08;3.33;;;0.77;;
59649;SDS011;46162;57.568;25.814;2023-07-29T09:31:37;4.15;;;0.50;;
59649;SDS011;46162;57.568;25.814;2023-07-29T09:34:06;3.33;;;0.65;;
59649;SDS011;46162;57.568;25.814;2023-07-29T09:36:35;2.20;;;0.43;;
59649;SDS011;46162;57.568;25.814;2023-07-29T09:39:10;4.22;;;0.60;;
59649;SDS011;46162;57.568;25.814;2023-07-29T09:41:40;3.50;;;0.85;;
59649;SDS011;46162;57.568;25.814;2023-07-29T09:44:10;2.90;;;0.70;;
59649;SDS011;46162;57.568;25.814;2023-07-29T09:49:08;4.28;;;0.98;;
59649;SDS011;46162;57.568;25.814;2023-07-29T09:51:38;3.30;;;0.63;;
59649;SDS011;46162;57.568;25.814;2023-07-29T09:54:07;3.58;;;0.80;;
59649;SDS011;46162;57.568;25.814;2023-07-29T09:56:39;2.85;;;0.63;;
59649;SDS011;46162;57.568;25.814;2023-07-29T09:59:10;7.28;;;1.02;;
59649;SDS011;46162;57.568;25.814;2023-07-29T10:01:40;2.85;;;0.55;;
59649;SDS011;46162;57.568;25.814;2023-07-29T10:04:10;4.85;;;0.45;;
59649;SDS011;46162;57.568;25.814;2023-07-29T10:06:41;2.60;;;0.50;;
59649;SDS011;46162;57.568;25.814;2023-07-29T10:09:10;1.65;;;0.32;;
59649;SDS011;46162;57.568;25.814;2023-07-29T10:11:40;5.55;;;0.40;;
59649;SDS011;46162;57.568;25.814;2023-07-29T10:14:11;2.17;;;0.20;;
59649;SDS011;46162;57.568;25.814;2023-07-29T10:16:40;2.00;;;0.20;;
59649;SDS011;46162;57.568;25.814;2023-07-29T10:19:09;1.35;;;0.10;;
59649;SDS011;46162;57.568;25.814;2023-07-29T10:21:39;1.73;;;0.10;;
59649;SDS011;46162;57.568;25.814;2023-07-29T10:24:14;1.73;;;0.10;;
59649;SDS011;46162;57.568;25.814;2023-07-29T10:26:47;5.43;;;0.20;;
59649;SDS011;46162;57.568;25.814;2023-07-29T10:29:19;5.35;;;0.10;;
59649;SDS011;46162;57.568;25.814;2023-07-29T10:31:51;1.92;;;0.10;;
59649;SDS011;46162;57.568;25.814;2023-07-29T10:34:21;2.80;;;0.10;;
59649;SDS011;46162;57.568;25.814;2023-07-29T10:36:50;2.88;;;0.10;;
59649;SDS011;46162;57.568;25.814;2023-07-29T10:39:20;1.70;;;0.10;;
59649;SDS011;46162;57.568;25.814;2023-07-29T10:41:55;4.88;;;0.10;;
59649;SDS011;46162;57.568;25.814;2023-07-29T10:47:21;4.82;;;1.40;;
59649;SDS011;46162;57.568;25.814;2023-07-29T10:49:51;1.50;;;0.10;;
59649;SDS011;46162;57.568;25.814;2023-07-29T10:52:28;2.80;;;0.10;;
59649;SDS011;46162;57.568;25.814;2023-07-29T10:54:59;3.22;;;0.20;;
59649;SDS011;46162;57.568;25.814;2023-07-29T10:57:31;1.30;;;0.10;;
59649;SDS011;46162;57.568;25.814;2023-07-29T11:00:04;1.52;;;0.10;;
59649;SDS011;46162;57.568;25.814;2023-07-29T11:02:34;2.15;;;0.10;;
59649;SDS011;46162;57.568;25.814;2023-07-29T11:05:05;2.40;;;0.05;;
59649;SDS011;46162;57.568;25.814;2023-07-29T11:07:43;2.08;;;0.03;;
59649;SDS011;46162;57.568;25.814;2023-07-29T11:10:12;3.17;;;0.10;;
59649;SDS011;46162;57.568;25.814;2023-07-29T11:12:42;1.13;;;0.00;;
59649;SDS011;46162;57.568;25.814;2023-07-29T11:15:17;1.40;;;0.00;;
59649;SDS011;46162;57.568;25.814;2023-07-29T11:17:48;11.32;;;0.63;;
59649;SDS011;46162;57.568;25.814;2023-07-29T11:20:18;1.27;;;0.03;;
59649;SDS011;46162;57.568;25.814;2023-07-29T11:22:48;0.88;;;0.05;;
59649;SDS011;46162;57.568;25.814;2023-07-29T11:25:17;0.60;;;0.00;;
59649;SDS011;46162;57.568;25.814;2023-07-29T11:27:47;1.65;;;0.00;;
59649;SDS011;46162;57.568;25.814;2023-07-29T11:30:17;0.85;;;0.00;;
59649;SDS011;46162;57.568;25.814;2023-07-29T11:32:47;2.10;;;0.00;;
59649;SDS011;46162;57.568;25.814;2023-07-29T11:35:16;1.10;;;0.00;;
59649;SDS011;46162;57.568;25.814;2023-07-29T11:37:46;2.03;;;0.00;;
59649;SDS011;46162;57.568;25.814;2023-07-29T11:40:16;0.65;;;0.00;;
59649;SDS011;46162;57.568;25.814;2023-07-29T11:42:46;1.85;;;0.10;;
59649;SDS011;46162;57.568;25.814;2023-07-29T11:45:19;1.13;;;0.00;;
59649;SDS011;46162;57.568;25.814;2023-07-29T11:47:51;1.65;;;0.10;;
59649;SDS011;46162;57.568;25.814;2023-07-29T11:50:20;1.27;;;0.00;;
59649;SDS011;46162;57.568;25.814;2023-07-29T11:52:48;1.40;;;0.10;;
59649;SDS011;46162;57.568;25.814;2023-07-29T11:55:17;2.90;;;0.10;;
59649;SDS011;46162;57.568;25.814;2023-07-29T11:57:46;9.27;;;0.30;;
59649;SDS011;46162;57.568;25.814;2023-07-29T12:00:21;2.30;;;0.00;;
59649;SDS011;46162;57.568;25.814;2023-07-29T12:02:50;0.40;;;0.00;;
59649;SDS011;46162;57.568;25.814;2023-07-29T12:05:20;0.65;;;0.08;;
59649;SDS011;46162;57.568;25.814;2023-07-29T12:07:50;6.32;;;0.40;;
59649;SDS011;46162;57.568;25.814;2023-07-29T12:10:19;3.88;;;0.30;;
59649;SDS011;46162;57.568;25.814;2023-07-29T12:12:49;0.90;;;0.00;;
59649;SDS011;46162;57.568;25.814;2023-07-29T12:15:24;0.82;;;0.00;;
59649;SDS011;46162;57.568;25.814;2023-07-29T12:17:54;0.50;;;0.00;;
59649;SDS011;46162;57.568;25.814;2023-07-29T12:20:25;0.60;;;0.00;;
59649;SDS011;46162;57.568;25.814;2023-07-29T12:22:55;2.55;;;0.10;;
59649;SDS011;46162;57.568;25.814;2023-07-29T12:25:25;1.52;;;0.05;;
59649;SDS011;46162;57.568;25.814;2023-07-29T12:27:54;0.70;;;0.00;;
59649;SDS011;46162;57.568;25.814;2023-07-29T12:30:24;2.00;;;0.00;;
59649;SDS011;46162;57.568;25.814;2023-07-29T12:32:53;1.30;;;0.00;;
59649;SDS011;46162;57.568;25.814;2023-07-29T12:35:22;1.10;;;0.10;;
59649;SDS011;46162;57.568;25.814;2023-07-29T12:37:58;2.58;;;0.10;;
59649;SDS011;46162;57.568;25.814;2023-07-29T12:40:27;1.42;;;0.05;;
59649;SDS011;46162;57.568;25.814;2023-07-29T12:42:55;0.68;;;0.00;;
59649;SDS011;46162;57.568;25.814;2023-07-29T12:45:26;2.60;;;0.00;;
59649;SDS011;46162;57.568;25.814;2023-07-29T12:47:55;1.27;;;0.10;;
59649;SDS011;46162;57.568;25.814;2023-07-29T12:50:24;1.42;;;0.50;;
59649;SDS011;46162;57.568;25.814;2023-07-29T12:52:53;3.17;;;0.00;;
59649;SDS011;46162;57.568;25.814;2023-07-29T12:55:22;2.15;;;0.00;;
59649;SDS011;46162;57.568;25.814;2023-07-29T12:57:51;3.40;;;0.03;;
59649;SDS011;46162;57.568;25.814;2023-07-29T13:00:19;1.08;;;0.00;;
59649;SDS011;46162;57.568;25.814;2023-07-29T13:02:49;4.05;;;0.03;;
59649;SDS011;46162;57.568;25.814;2023-07-29T13:05:19;1.10;;;0.10;;
59649;SDS011;46162;57.568;25.814;2023-07-29T13:07:48;0.90;;;0.00;;
59649;SDS011;46162;57.568;25.814;2023-07-29T13:10:16;3.67;;;0.00;;
59649;SDS011;46162;57.568;25.814;2023-07-29T13:12:45;2.08;;;0.00;;
59649;SDS011;46162;57.568;25.814;2023-07-29T13:15:15;1.70;;;0.10;;
59649;SDS011;46162;57.568;25.814;2023-07-29T13:17:44;1.20;;;0.00;;
59649;SDS011;46162;57.568;25.814;2023-07-29T13:20:14;1.33;;;0.10;;
59649;SDS011;46162;57.568;25.814;2023-07-29T13:22:45;0.90;;;0.10;;
59649;SDS011;46162;57.568;25.814;2023-07-29T13:25:14;4.32;;;0.10;;
59649;SDS011;46162;57.568;25.814;2023-07-29T13:27:42;1.77;;;0.00;;
59649;SDS011;46162;57.568;25.814;2023-07-29T13:30:11;2.95;;;0.00;;
59649;SDS011;46162;57.568;25.814;2023-07-29T13:32:39;0.52;;;0.00;;
59649;SDS011;46162;57.568;25.814;2023-07-29T13:35:08;0.70;;;0.00;;
59649;SDS011;46162;57.568;25.814;2023-07-29T13:37:38;0.90;;;0.00;;
59649;SDS011;46162;57.568;25.814;2023-07-29T13:40:07;2.55;;;0.10;;
59649;SDS011;46162;57.568;25.814;2023-07-29T13:42:36;1.33;;;0.00;;
59649;SDS011;46162;57.568;25.814;2023-07-29T13:45:05;1.75;;;0.05;;
59649;SDS011;46162;57.568;25.814;2023-07-29T13:47:34;1.73;;;0.00;;
59649;SDS011;46162;57.568;25.814;2023-07-29T13:50:03;0.77;;;0.00;;
59649;SDS011;46162;57.568;25.814;2023-07-29T13:52:35;1.27;;;0.10;;
59649;SDS011;46162;57.568;25.814;2023-07-29T13:55:06;2.80;;;0.00;;
59649;SDS011;46162;57.568;25.814;2023-07-29T13:57:35;2.50;;;0.10;;
59649;SDS011;46162;57.568;25.814;2023-07-29T14:00:04;1.70;;;0.10;;
59649;SDS011;46162;57.568;25.814;2023-07-29T14:02:37;1.08;;;0.10;;
59649;SDS011;46162;57.568;25.814;2023-07-29T14:05:06;5.00;;;0.10;;
59649;SDS011;46162;57.568;25.814;2023-07-29T14:07:35;1.63;;;0.10;;
59649;SDS011;46162;57.568;25.814;2023-07-29T14:10:06;1.55;;;0.05;;
59649;SDS011;46162;57.568;25.814;2023-07-29T14:12:35;1.70;;;0.10;;
59649;SDS011;46162;57.568;25.814;2023-07-29T14:15:04;2.30;;;0.10;;
59649;SDS011;46162;57.568;25.814;2023-07-29T14:17:34;2.38;;;0.08;;
59649;SDS011;46162;57.568;25.814;2023-07-29T14:20:02;1.13;;;0.00;;
59649;SDS011;46162;57.568;25.814;2023-07-29T14:22:32;0.45;;;0.00;;
59649;SDS011;46162;57.568;25.814;2023-07-29T14:25:01;1.65;;;0.10;;
59649;SDS011;46162;57.568;25.814;2023-07-29T14:27:31;1.77;;;0.10;;
59649;SDS011;46162;57.568;25.814;2023-07-29T14:30:00;1.52;;;0.10;;
59649;SDS011;46162;57.568;25.814;2023-07-29T14:32:29;2.53;;;0.00;;
59649;SDS011;46162;57.568;25.814;2023-07-29T14:34:58;0.70;;;0.00;;
59649;SDS011;46162;57.568;25.814;2023-07-29T14:37:30;0.82;;;0.03;;
59649;SDS011;46162;57.568;25.814;2023-07-29T14:39:59;2.33;;;0.03;;
59649;SDS011;46162;57.568;25.814;2023-07-29T14:42:28;0.65;;;0.00;;
59649;SDS011;46162;57.568;25.814;2023-07-29T14:45:01;0.57;;;0.00;;
59649;SDS011;46162;57.568;25.814;2023-07-29T14:47:30;0.98;;;0.00;;
59649;SDS011;46162;57.568;25.814;2023-07-29T14:50:01;1.90;;;0.03;;
59649;SDS011;46162;57.568;25.814;2023-07-29T14:52:30;2.50;;;0.10;;
59649;SDS011;46162;57.568;25.814;2023-07-29T14:54:59;0.70;;;0.00;;
59649;SDS011;46162;57.568;25.814;2023-07-29T14:57:27;1.15;;;0.00;;
59649;SDS011;46162;57.568;25.814;2023-07-29T14:59:56;2.30;;;0.10;;
59649;SDS011;46162;57.568;25.814;2023-07-29T15:02:26;5.32;;;0.00;;
59649;SDS011;46162;57.568;25.814;2023-07-29T15:04:55;0.90;;;0.00;;
59649;SDS011;46162;57.568;25.814;2023-07-29T15:07:23;0.85;;;0.00;;